createdAt,value
2018-01-21T00:00:31.867Z,99.99
2018-01-21T00:01:31.845Z,99.99
2018-01-21T00:02:31.875Z,99.99
2018-01-21T00:03:31.906Z,99.99
2018-01-21T00:04:31.937Z,99.99
2018-01-21T00:05:31.968Z,99.99
2018-01-21T00:06:31.996Z,99.99
2018-01-21T00:07:32.027Z,99.99
2018-01-21T00:08:32.055Z,99.99
2018-01-21T00:09:32.086Z,99.99
2018-01-21T00:10:32.116Z,99.99
2018-01-21T00:11:32.140Z,99.99
2018-01-21T00:12:32.171Z,99.99
2018-01-21T00:13:32.202Z,99.99
2018-01-21T00:14:32.233Z,99.99
2018-01-21T00:15:32.584Z,99.99
2018-01-21T00:16:32.292Z,99.99
2018-01-21T00:17:32.322Z,99.99
2018-01-21T00:18:32.352Z,99.99
2018-01-21T00:19:32.383Z,99.99
2018-01-21T00:20:32.412Z,99.99
2018-01-21T00:21:32.506Z,99.99
2018-01-21T00:22:32.802Z,99.99
2018-01-21T00:23:32.504Z,99.99
2018-01-21T00:24:32.533Z,99.99
2018-01-21T00:25:32.560Z,99.99
2018-01-21T00:26:32.591Z,99.99
2018-01-21T00:27:32.622Z,99.99
2018-01-21T00:28:32.647Z,99.99
2018-01-21T00:29:32.678Z,99.99
2018-01-21T00:30:32.710Z,99.99
2018-01-21T00:31:32.741Z,99.99
2018-01-21T00:32:32.768Z,99.99
2018-01-21T00:33:32.855Z,99.99
2018-01-21T00:34:33.195Z,99.99
2018-01-21T00:35:32.859Z,99.99
2018-01-21T00:36:32.884Z,99.99
2018-01-21T00:37:32.920Z,99.99
2018-01-21T00:38:32.945Z,99.99
2018-01-21T00:39:32.974Z,99.99
2018-01-21T00:40:33.006Z,99.99
2018-01-21T00:41:33.034Z,99.99
2018-01-21T00:42:33.122Z,99.99
2018-01-21T00:43:33.092Z,99.99
2018-01-21T00:44:33.125Z,99.99
2018-01-21T00:45:33.156Z,99.99
2018-01-21T00:46:33.183Z,99.99
2018-01-21T00:47:33.211Z,99.99
2018-01-21T00:48:33.241Z,99.99
2018-01-21T00:49:33.271Z,99.99
2018-01-21T00:50:33.301Z,99.99
2018-01-21T00:51:33.340Z,99.99
2018-01-21T00:52:33.361Z,99.99
2018-01-21T00:53:33.392Z,99.99
2018-01-21T00:54:33.420Z,99.99
2018-01-21T00:55:33.452Z,99.99
2018-01-21T00:56:33.477Z,99.99
2018-01-21T00:57:33.507Z,99.99
2018-01-21T00:58:33.710Z,99.99
2018-01-21T00:59:33.565Z,99.99
2018-01-21T01:00:33.596Z,99.99
2018-01-21T01:01:33.624Z,99.99
2018-01-21T01:02:33.654Z,99.99
2018-01-21T01:03:33.683Z,99.99
2018-01-21T01:04:33.715Z,99.99
2018-01-21T01:05:33.745Z,99.99
2018-01-21T01:06:33.773Z,99.99
2018-01-21T01:07:33.803Z,99.99
2018-01-21T01:08:33.834Z,99.99
2018-01-21T01:09:33.864Z,99.99
2018-01-21T01:10:33.894Z,99.99
2018-01-21T01:11:33.918Z,99.99
2018-01-21T01:12:33.952Z,99.99
2018-01-21T01:13:33.978Z,99.99
2018-01-21T01:14:34.009Z,99.99
2018-01-21T01:15:34.103Z,99.99
2018-01-21T01:16:34.068Z,99.99
2018-01-21T01:17:34.096Z,99.99
2018-01-21T01:18:34.127Z,99.99
2018-01-21T01:19:34.154Z,99.99
2018-01-21T01:20:34.183Z,99.99
2018-01-21T01:21:34.215Z,99.99
2018-01-21T01:22:34.244Z,99.99
2018-01-21T01:23:34.274Z,99.99
2018-01-21T01:24:34.303Z,99.99
2018-01-21T01:25:34.343Z,99.99
2018-01-21T01:26:34.363Z,99.99
2018-01-21T01:27:34.415Z,99.99
2018-01-21T01:28:34.419Z,99.99
2018-01-21T01:29:34.450Z,99.99
2018-01-21T01:30:34.480Z,99.99
2018-01-21T01:31:34.510Z,99.99
2018-01-21T01:32:34.537Z,99.99
2018-01-21T01:33:34.565Z,99.99
2018-01-21T01:34:34.730Z,99.99
2018-01-21T01:35:34.628Z,99.99
2018-01-21T01:36:34.655Z,99.99
2018-01-21T01:37:34.695Z,99.99
2018-01-21T01:38:34.717Z,99.99
2018-01-21T01:39:34.746Z,99.99
2018-01-21T01:40:34.775Z,99.99
2018-01-21T01:41:34.806Z,99.99
2018-01-21T01:42:34.842Z,99.99
2018-01-21T01:43:34.860Z,99.99
2018-01-21T01:44:34.914Z,99.99
2018-01-21T01:45:34.934Z,99.99
2018-01-21T01:46:34.952Z,99.99
2018-01-21T01:47:34.978Z,99.99
2018-01-21T01:48:35.007Z,99.99
2018-01-21T01:49:35.037Z,99.99
2018-01-21T01:50:35.068Z,99.99
2018-01-21T01:51:35.147Z,99.99
2018-01-21T01:52:35.128Z,99.99
2018-01-21T01:53:35.153Z,99.99
2018-01-21T01:54:35.182Z,99.99
2018-01-21T01:55:35.212Z,99.99
2018-01-21T01:56:35.242Z,99.99
2018-01-21T01:57:35.272Z,99.99
2018-01-21T01:58:35.362Z,99.99
2018-01-21T01:59:35.331Z,99.99
2018-01-21T02:00:35.358Z,99.99
2018-01-21T02:01:35.390Z,99.99
2018-01-21T02:02:35.418Z,99.99
2018-01-21T02:03:35.449Z,99.99
2018-01-21T02:04:35.478Z,99.99
2018-01-21T02:05:35.509Z,99.99
2018-01-21T02:06:35.538Z,99.99
2018-01-21T02:07:35.564Z,99.99
2018-01-21T02:08:35.600Z,99.99
2018-01-21T02:09:35.624Z,99.99
2018-01-21T02:10:35.654Z,99.99
2018-01-21T02:11:35.683Z,99.99
2018-01-21T02:12:35.711Z,99.99
2018-01-21T02:13:35.742Z,99.99
2018-01-21T02:14:35.773Z,99.99
2018-01-21T02:15:35.800Z,99.99
2018-01-21T02:16:35.833Z,99.99
2018-01-21T02:17:35.860Z,99.99
2018-01-21T02:18:35.891Z,99.99
2018-01-21T02:19:35.922Z,99.99
2018-01-21T02:20:35.951Z,99.99
2018-01-21T02:21:35.982Z,99.99
2018-01-21T02:22:36.011Z,99.99
2018-01-21T02:23:36.051Z,99.99
2018-01-21T02:24:36.069Z,99.99
2018-01-21T02:25:36.096Z,99.99
2018-01-21T02:26:36.123Z,99.99
2018-01-21T02:27:36.187Z,99.99
2018-01-21T02:28:36.183Z,99.99
2018-01-21T02:29:36.215Z,99.99
2018-01-21T02:30:36.242Z,99.99
2018-01-21T02:31:36.330Z,99.99
2018-01-21T02:32:36.303Z,99.99
2018-01-21T02:33:36.346Z,99.99
2018-01-21T02:34:36.429Z,99.99
2018-01-21T02:35:36.387Z,99.99
2018-01-21T02:36:36.421Z,99.99
2018-01-21T02:37:36.448Z,99.99
2018-01-21T02:38:36.483Z,99.99
2018-01-21T02:39:36.508Z,99.99
2018-01-21T02:40:36.537Z,99.99
2018-01-21T02:41:36.570Z,99.99
2018-01-21T02:42:36.595Z,99.99
2018-01-21T02:43:36.626Z,99.99
2018-01-21T02:44:36.656Z,99.99
2018-01-21T02:45:36.683Z,99.99
2018-01-21T02:46:36.713Z,99.99
2018-01-21T02:47:36.743Z,99.99
2018-01-21T02:48:36.774Z,99.99
2018-01-21T02:49:36.802Z,99.99
2018-01-21T02:50:36.887Z,99.99
2018-01-21T02:51:36.935Z,99.99
2018-01-21T02:52:36.893Z,99.99
2018-01-21T02:53:36.927Z,99.99
2018-01-21T02:54:36.950Z,99.99
2018-01-21T02:55:36.978Z,99.99
2018-01-21T02:56:37.007Z,99.99
2018-01-21T02:57:37.039Z,99.99
2018-01-21T02:58:37.067Z,99.99
2018-01-21T02:59:37.095Z,99.99
2018-01-21T03:00:37.128Z,99.99
2018-01-21T03:01:37.156Z,99.99
2018-01-21T03:02:37.188Z,99.99
2018-01-21T03:03:37.217Z,99.99
2018-01-21T03:04:37.246Z,99.99
2018-01-21T03:05:37.277Z,99.99
2018-01-21T03:06:37.306Z,99.99
2018-01-21T03:07:37.336Z,99.99
2018-01-21T03:08:37.367Z,99.99
2018-01-21T03:09:37.391Z,99.99
2018-01-21T03:10:37.742Z,99.99
2018-01-21T03:11:37.449Z,99.99
2018-01-21T03:12:37.478Z,99.99
2018-01-21T03:13:37.510Z,99.99
2018-01-21T03:14:37.539Z,99.99
2018-01-21T03:15:37.567Z,99.99
2018-01-21T03:16:37.597Z,99.99
2018-01-21T03:17:37.629Z,99.99
2018-01-21T03:18:37.659Z,99.99
2018-01-21T03:19:37.686Z,99.99
2018-01-21T03:20:37.718Z,99.99
2018-01-21T03:21:37.761Z,99.99
2018-01-21T03:22:37.792Z,99.99
2018-01-21T03:23:37.811Z,99.99
2018-01-21T03:24:37.832Z,99.99
2018-01-21T03:25:37.863Z,99.99
2018-01-21T03:26:37.892Z,99.99
2018-01-21T03:27:37.926Z,99.99
2018-01-21T03:28:37.952Z,99.99
2018-01-21T03:29:37.978Z,99.99
2018-01-21T03:30:38.024Z,99.99
2018-01-21T03:31:38.039Z,99.99
2018-01-21T03:32:38.067Z,99.99
2018-01-21T03:33:38.099Z,99.99
2018-01-21T03:34:38.133Z,99.99
2018-01-21T03:35:38.167Z,99.99
2018-01-21T03:36:38.184Z,99.99
2018-01-21T03:37:38.214Z,99.99
2018-01-21T03:38:38.249Z,99.99
2018-01-21T03:39:38.274Z,99.99
2018-01-21T03:40:38.310Z,99.99
2018-01-21T03:41:38.331Z,99.99
2018-01-21T03:42:38.360Z,99.99
2018-01-21T03:43:38.392Z,99.99
2018-01-21T03:44:38.450Z,99.99
2018-01-21T03:45:38.456Z,99.99
2018-01-21T03:46:38.480Z,99.99
2018-01-21T03:47:38.509Z,99.99
2018-01-21T03:48:38.546Z,99.99
2018-01-21T03:49:38.566Z,99.99
2018-01-21T03:50:38.593Z,99.99
2018-01-21T03:51:38.966Z,99.99
2018-01-21T03:52:38.655Z,99.99
2018-01-21T03:53:38.684Z,99.99
2018-01-21T03:54:38.711Z,99.99
2018-01-21T03:55:38.741Z,99.99
2018-01-21T03:56:38.770Z,99.99
2018-01-21T03:57:38.804Z,99.99
2018-01-21T03:58:38.826Z,99.99
2018-01-21T03:59:38.856Z,99.99
2018-01-21T04:00:38.886Z,99.99
2018-01-21T04:01:38.922Z,99.99
2018-01-21T04:02:38.946Z,99.99
2018-01-21T04:03:39.004Z,99.99
2018-01-21T04:04:39.002Z,99.99
2018-01-21T04:05:39.031Z,99.99
2018-01-21T04:06:39.063Z,99.99
2018-01-21T04:07:39.092Z,99.99
2018-01-21T04:08:39.117Z,99.99
2018-01-21T04:09:39.147Z,99.99
2018-01-21T04:10:39.179Z,99.99
2018-01-21T04:11:39.205Z,99.99
2018-01-21T04:12:39.235Z,99.99
2018-01-21T04:13:39.275Z,99.99
2018-01-21T04:14:39.293Z,99.99
2018-01-21T04:15:39.323Z,99.99
2018-01-21T04:16:39.353Z,99.99
2018-01-21T04:17:39.383Z,99.99
2018-01-21T04:18:39.413Z,99.99
2018-01-21T04:19:39.440Z,99.99
2018-01-21T04:20:39.674Z,99.99
2018-01-21T04:21:39.497Z,99.99
2018-01-21T04:22:39.528Z,99.99
2018-01-21T04:23:39.556Z,99.99
2018-01-21T04:24:39.585Z,99.99
2018-01-21T04:25:39.617Z,99.99
2018-01-21T04:26:39.646Z,99.99
2018-01-21T04:27:40.000Z,99.99
2018-01-21T04:28:39.702Z,99.99
2018-01-21T04:29:39.729Z,99.99
2018-01-21T04:30:39.757Z,99.99
2018-01-21T04:31:39.785Z,99.99
2018-01-21T04:32:39.814Z,99.99
2018-01-21T04:33:39.845Z,99.99
2018-01-21T04:34:39.875Z,99.99
2018-01-21T04:35:39.907Z,99.99
2018-01-21T04:36:39.931Z,99.99
2018-01-21T04:37:39.965Z,99.99
2018-01-21T04:38:39.990Z,99.99
2018-01-21T04:39:40.019Z,99.99
2018-01-21T04:40:40.052Z,99.99
2018-01-21T04:41:40.076Z,99.99
2018-01-21T04:42:40.106Z,99.99
2018-01-21T04:43:40.136Z,99.99
2018-01-21T04:44:40.239Z,99.99
2018-01-21T04:45:40.196Z,99.99
2018-01-21T04:46:40.225Z,99.99
2018-01-21T04:47:40.255Z,99.99
2018-01-21T04:48:40.284Z,99.99
2018-01-21T04:49:40.309Z,99.99
2018-01-21T04:50:40.339Z,99.99
2018-01-21T04:51:40.367Z,99.99
2018-01-21T04:52:40.397Z,99.99
2018-01-21T04:53:40.427Z,99.99
2018-01-21T04:54:40.457Z,99.99
2018-01-21T04:55:40.487Z,99.99
2018-01-21T04:56:40.580Z,99.99
2018-01-21T04:57:40.543Z,99.99
2018-01-21T04:58:40.569Z,99.99
2018-01-21T04:59:40.597Z,99.99
2018-01-21T05:00:40.627Z,99.99
2018-01-21T05:01:40.658Z,99.99
2018-01-21T05:02:40.689Z,99.99
2018-01-21T05:03:41.040Z,99.99
2018-01-21T05:04:40.745Z,99.99
2018-01-21T05:05:40.779Z,99.99
2018-01-21T05:06:40.811Z,99.99
2018-01-21T05:07:40.832Z,99.99
2018-01-21T05:08:40.860Z,99.99
2018-01-21T05:09:40.889Z,99.99
2018-01-21T05:10:40.919Z,99.99
2018-01-21T05:11:40.964Z,99.99
2018-01-21T05:12:40.979Z,99.99
2018-01-21T05:13:41.011Z,99.99
2018-01-21T05:14:41.036Z,99.99
2018-01-21T05:15:41.062Z,99.99
2018-01-21T05:16:41.093Z,99.99
2018-01-21T05:17:41.123Z,99.99
2018-01-21T05:18:41.150Z,99.99
2018-01-21T05:19:41.180Z,99.99
2018-01-21T05:20:41.246Z,99.99
2018-01-21T05:21:41.241Z,99.99
2018-01-21T05:22:41.269Z,99.99
2018-01-21T05:23:41.294Z,99.99
2018-01-21T05:24:41.335Z,99.99
2018-01-21T05:25:41.355Z,99.99
2018-01-21T05:26:41.383Z,99.99
2018-01-21T05:27:41.410Z,99.99
2018-01-21T05:28:41.441Z,99.99
2018-01-21T05:29:41.483Z,99.99
2018-01-21T05:30:41.575Z,99.99
2018-01-21T05:31:41.528Z,99.99
2018-01-21T05:32:41.556Z,99.99
2018-01-21T05:33:41.640Z,99.99
2018-01-21T05:34:41.613Z,99.99
2018-01-21T05:35:41.642Z,99.99
2018-01-21T05:36:41.671Z,99.99
2018-01-21T05:37:41.803Z,99.99
2018-01-21T05:38:41.732Z,99.99
2018-01-21T05:40:41.788Z,99.99
2018-01-21T05:41:41.815Z,99.99
2018-01-21T05:42:41.848Z,99.99
2018-01-21T05:43:41.874Z,99.99
2018-01-21T05:44:41.904Z,99.99
2018-01-21T05:45:41.933Z,99.99
2018-01-21T05:46:41.964Z,99.99
2018-01-21T05:47:41.989Z,99.99
2018-01-21T05:48:42.018Z,99.99
2018-01-21T05:49:42.120Z,99.99
2018-01-21T05:50:42.076Z,99.99
2018-01-21T05:51:42.104Z,99.99
2018-01-21T05:52:42.135Z,99.99
2018-01-21T05:53:42.164Z,99.99
2018-01-21T05:54:42.194Z,99.99
2018-01-21T05:55:42.225Z,99.99
2018-01-21T05:56:42.247Z,99.99
2018-01-21T05:57:42.279Z,99.99
2018-01-21T05:58:42.306Z,99.99
2018-01-21T05:59:42.335Z,99.99
2018-01-21T06:00:42.365Z,99.99
2018-01-21T06:01:42.393Z,99.99
2018-01-21T06:02:42.421Z,99.99
2018-01-21T06:03:42.448Z,99.99
2018-01-21T06:04:42.480Z,99.99
2018-01-21T06:05:42.518Z,99.99
2018-01-21T06:06:42.600Z,99.99
2018-01-21T06:07:42.566Z,99.99
2018-01-21T06:08:42.595Z,99.99
2018-01-21T06:09:42.622Z,99.99
2018-01-21T06:10:42.659Z,99.99
2018-01-21T06:11:42.681Z,99.99
2018-01-21T06:12:42.707Z,99.99
2018-01-21T06:13:42.800Z,99.99
2018-01-21T06:14:42.771Z,99.99
2018-01-21T06:15:42.796Z,99.99
2018-01-21T06:16:42.821Z,99.99
2018-01-21T06:17:42.851Z,99.99
2018-01-21T06:18:42.878Z,99.99
2018-01-21T06:19:42.907Z,99.99
2018-01-21T06:20:42.937Z,99.99
2018-01-21T06:21:43.023Z,99.99
2018-01-21T06:22:42.996Z,99.99
2018-01-21T06:23:43.035Z,99.99
2018-01-21T06:24:43.052Z,99.99
2018-01-21T06:25:43.080Z,99.99
2018-01-21T06:26:43.109Z,99.99
2018-01-21T06:27:43.138Z,99.99
2018-01-21T06:28:43.165Z,99.99
2018-01-21T06:29:43.199Z,99.99
2018-01-21T06:30:43.620Z,99.99
2018-01-21T06:31:43.252Z,99.99
2018-01-21T06:32:43.282Z,99.99
2018-01-21T06:33:43.312Z,99.99
2018-01-21T06:34:43.341Z,99.99
2018-01-21T06:35:43.382Z,99.99
2018-01-21T06:36:43.409Z,99.99
2018-01-21T06:37:43.428Z,99.99
2018-01-21T06:38:43.466Z,99.99
2018-01-21T06:39:43.482Z,99.99
2018-01-21T06:40:43.511Z,99.99
2018-01-21T06:41:43.546Z,99.99
2018-01-21T06:42:43.640Z,99.99
2018-01-21T06:43:43.599Z,99.99
2018-01-21T06:44:43.643Z,99.99
2018-01-21T06:45:43.672Z,99.99
2018-01-21T06:46:43.685Z,99.99
2018-01-21T06:47:43.712Z,99.99
2018-01-21T06:48:43.803Z,99.99
2018-01-21T06:49:43.772Z,99.99
2018-01-21T06:50:43.802Z,99.99
2018-01-21T06:51:43.830Z,99.99
2018-01-21T06:52:43.861Z,99.99
2018-01-21T06:53:43.890Z,99.99
2018-01-21T06:54:43.920Z,99.99
2018-01-21T06:55:43.965Z,99.99
2018-01-21T06:56:43.981Z,99.99
2018-01-21T06:57:44.006Z,99.99
2018-01-21T06:58:44.033Z,99.99
2018-01-21T06:59:44.078Z,99.99
2018-01-21T07:00:44.091Z,99.99
2018-01-21T07:01:44.121Z,99.99
2018-01-21T07:02:44.152Z,99.99
2018-01-21T07:03:44.177Z,99.99
2018-01-21T07:04:44.212Z,99.99
2018-01-21T07:05:44.237Z,99.99
2018-01-21T07:06:44.288Z,99.99
2018-01-21T07:07:44.352Z,99.99
2018-01-21T07:08:44.323Z,99.99
2018-01-21T07:09:44.355Z,99.99
2018-01-21T07:10:44.385Z,99.99
2018-01-21T07:11:44.420Z,99.99
2018-01-21T07:12:44.444Z,99.99
2018-01-21T07:13:44.473Z,99.99
2018-01-21T07:14:44.498Z,99.99
2018-01-21T07:15:44.547Z,99.99
2018-01-21T07:16:44.658Z,99.99
2018-01-21T07:17:44.588Z,99.99
2018-01-21T07:18:44.616Z,99.99
2018-01-21T07:19:44.644Z,99.99
2018-01-21T07:20:44.674Z,99.99
2018-01-21T07:21:44.704Z,99.99
2018-01-21T07:22:44.737Z,99.99
2018-01-21T07:23:45.086Z,99.99
2018-01-21T07:24:44.789Z,99.99
2018-01-21T07:25:44.818Z,99.99
2018-01-21T07:26:44.849Z,99.99
2018-01-21T07:27:44.879Z,99.99
2018-01-21T07:28:44.906Z,99.99
2018-01-21T07:29:44.937Z,99.99
2018-01-21T07:30:44.967Z,99.99
2018-01-21T07:31:44.995Z,99.99
2018-01-21T07:32:45.026Z,99.99
2018-01-21T07:33:45.056Z,99.99
2018-01-21T07:34:45.085Z,99.99
2018-01-21T07:35:45.174Z,99.99
2018-01-21T07:36:45.141Z,99.99
2018-01-21T07:37:45.175Z,99.99
2018-01-21T07:38:45.201Z,99.99
2018-01-21T07:39:45.228Z,99.99
2018-01-21T07:40:45.260Z,99.99
2018-01-21T07:41:45.289Z,99.99
2018-01-21T07:42:45.391Z,99.99
2018-01-21T07:43:45.347Z,99.99
2018-01-21T07:44:45.382Z,99.99
2018-01-21T07:45:45.407Z,99.99
2018-01-21T07:46:45.437Z,99.99
2018-01-21T07:47:45.466Z,99.99
2018-01-21T07:48:45.498Z,99.99
2018-01-21T07:49:45.527Z,99.99
2018-01-21T07:50:45.552Z,99.99
2018-01-21T07:51:45.582Z,99.99
2018-01-21T07:52:45.612Z,99.99
2018-01-21T07:53:45.641Z,99.99
2018-01-21T07:54:45.670Z,99.99
2018-01-21T07:55:45.700Z,99.99
2018-01-21T07:56:45.732Z,99.99
2018-01-21T07:57:45.762Z,99.99
2018-01-21T07:58:45.844Z,99.99
2018-01-21T07:59:45.870Z,99.99
2018-01-21T08:00:45.852Z,99.99
2018-01-21T08:01:45.879Z,99.99
2018-01-21T08:02:45.909Z,99.99
2018-01-21T08:03:45.953Z,99.99
2018-01-21T08:04:45.969Z,99.99
2018-01-21T08:05:45.999Z,99.99
2018-01-21T08:06:46.056Z,99.99
2018-01-21T08:07:46.058Z,99.99
2018-01-21T08:08:46.089Z,99.99
2018-01-21T08:09:46.119Z,99.99
2018-01-21T08:10:46.149Z,99.99
2018-01-21T08:11:46.174Z,99.99
2018-01-21T08:12:46.204Z,99.99
2018-01-21T08:13:46.235Z,99.99
2018-01-21T08:14:46.266Z,99.99
2018-01-21T08:15:46.293Z,99.99
2018-01-21T08:16:46.332Z,99.99
2018-01-21T08:17:46.354Z,99.99
2018-01-21T08:18:46.395Z,99.99
2018-01-21T08:19:46.471Z,99.99
2018-01-21T08:20:46.444Z,99.99
2018-01-21T08:21:46.474Z,99.99
2018-01-21T08:22:46.503Z,99.99
2018-01-21T08:23:46.532Z,99.99
2018-01-21T08:24:46.564Z,99.99
2018-01-21T08:25:46.591Z,99.99
2018-01-21T08:26:46.628Z,99.99
2018-01-21T08:27:46.653Z,99.99
2018-01-21T08:28:46.682Z,99.99
2018-01-21T08:29:46.712Z,99.99
2018-01-21T08:30:46.742Z,99.99
2018-01-21T08:31:46.772Z,99.99
2018-01-21T08:32:46.802Z,99.99
2018-01-21T08:33:46.833Z,99.99
2018-01-21T08:34:46.866Z,99.99
2018-01-21T08:35:46.955Z,99.99
2018-01-21T08:36:46.923Z,99.99
2018-01-21T08:37:46.953Z,99.99
2018-01-21T08:38:46.983Z,99.99
2018-01-21T08:39:47.012Z,99.99
2018-01-21T08:40:47.043Z,99.99
2018-01-21T08:41:47.073Z,99.99
2018-01-21T08:42:47.198Z,99.99
2018-01-21T08:43:47.142Z,99.99
2018-01-21T08:44:47.163Z,99.99
2018-01-21T08:45:47.194Z,99.99
2018-01-21T08:46:47.224Z,99.99
2018-01-21T08:47:47.253Z,99.99
2018-01-21T08:48:47.280Z,99.99
2018-01-21T08:49:47.325Z,99.99
2018-01-21T08:50:47.406Z,99.99
2018-01-21T08:51:47.433Z,99.99
2018-01-21T08:52:47.406Z,99.99
2018-01-21T08:53:47.435Z,99.99
2018-01-21T08:54:47.463Z,99.99
2018-01-21T08:55:47.497Z,99.99
2018-01-21T08:56:47.524Z,99.99
2018-01-21T08:57:47.567Z,99.99
2018-01-21T08:58:47.585Z,99.99
2018-01-21T08:59:47.716Z,99.99
2018-01-21T09:00:47.645Z,99.99
2018-01-21T09:01:47.675Z,99.99
2018-01-21T09:02:47.707Z,99.99
2018-01-21T09:03:47.732Z,99.99
2018-01-21T09:04:47.779Z,99.99
2018-01-21T09:05:47.805Z,99.99
2018-01-21T09:06:48.143Z,99.99
2018-01-21T09:07:47.856Z,99.99
2018-01-21T09:08:47.885Z,99.99
2018-01-21T09:09:47.918Z,99.99
2018-01-21T09:10:47.951Z,99.99
2018-01-21T09:11:47.985Z,99.99
2018-01-21T09:12:48.006Z,99.99
2018-01-21T09:13:48.047Z,99.99
2018-01-21T09:14:48.067Z,99.99
2018-01-21T09:15:48.098Z,99.99
2018-01-21T09:16:48.169Z,99.99
2018-01-21T09:17:48.162Z,99.99
2018-01-21T09:18:48.211Z,99.99
2018-01-21T09:19:48.217Z,99.99
2018-01-21T09:20:48.248Z,99.99
2018-01-21T09:21:48.281Z,99.99
2018-01-21T09:22:48.310Z,99.99
2018-01-21T09:23:48.337Z,99.99
2018-01-21T09:24:48.382Z,99.99
2018-01-21T09:25:48.400Z,99.99
2018-01-21T09:26:48.433Z,99.99
2018-01-21T09:27:48.460Z,99.99
2018-01-21T09:28:48.508Z,99.99
2018-01-21T09:29:48.522Z,99.99
2018-01-21T09:30:48.552Z,99.99
2018-01-21T09:31:48.582Z,99.99
2018-01-21T09:32:48.656Z,99.99
2018-01-21T09:33:48.644Z,99.99
2018-01-21T09:34:48.676Z,99.99
2018-01-21T09:35:48.757Z,99.99
2018-01-21T09:36:48.738Z,99.99
2018-01-21T09:37:48.783Z,99.58
2018-01-21T09:38:48.802Z,99.99
2018-01-21T09:39:48.824Z,99.99
2018-01-21T09:40:48.854Z,99.67
2018-01-21T09:41:48.893Z,99.99
2018-01-21T09:42:49.015Z,99.86
2018-01-21T09:43:48.957Z,99.99
2018-01-21T09:44:48.982Z,99.99
2018-01-21T09:45:49.010Z,99.99
2018-01-21T09:46:49.041Z,99.99
2018-01-21T09:47:49.070Z,99.99
2018-01-21T09:48:49.100Z,99.77
2018-01-21T09:49:49.133Z,99.99
2018-01-21T09:50:49.165Z,99.77
2018-01-21T09:51:49.196Z,99.99
2018-01-21T09:52:49.282Z,99.67
2018-01-21T09:53:49.255Z,99.20
2018-01-21T09:54:49.285Z,99.20
2018-01-21T09:55:49.314Z,98.96
2018-01-21T09:56:49.344Z,99.15
2018-01-21T09:57:49.374Z,99.15
2018-01-21T09:58:49.405Z,99.25
2018-01-21T09:59:49.513Z,98.49
2018-01-21T10:00:49.493Z,97.92
2018-01-21T10:01:49.498Z,98.49
2018-01-21T10:02:49.527Z,98.54
2018-01-21T10:03:49.558Z,99.10
2018-01-21T10:04:49.792Z,99.10
2018-01-21T10:05:49.620Z,99.48
2018-01-21T10:06:49.675Z,99.48
2018-01-21T10:07:49.694Z,99.67
2018-01-21T10:08:49.713Z,99.20
2018-01-21T10:09:49.743Z,99.20
2018-01-21T10:10:49.786Z,99.39
2018-01-21T10:11:50.005Z,99.29
2018-01-21T10:12:49.832Z,99.20
2018-01-21T10:13:49.867Z,99.48
2018-01-21T10:14:49.896Z,99.29
2018-01-21T10:15:49.928Z,99.67
2018-01-21T10:16:49.961Z,99.58
2018-01-21T10:17:49.997Z,99.29
2018-01-21T10:18:50.343Z,99.86
2018-01-21T10:19:50.067Z,99.99
2018-01-21T10:20:50.079Z,99.99
2018-01-21T10:21:50.110Z,99.99
2018-01-21T10:22:50.142Z,99.99
2018-01-21T10:23:50.174Z,99.99
2018-01-21T10:24:50.204Z,99.99
2018-01-21T10:25:50.235Z,99.99
2018-01-21T10:26:50.264Z,99.99
2018-01-21T10:27:50.294Z,99.99
2018-01-21T10:28:50.334Z,99.99
2018-01-21T10:29:50.355Z,99.99
2018-01-21T10:30:50.386Z,99.99
2018-01-21T10:31:50.427Z,99.99
2018-01-21T10:32:50.447Z,99.99
2018-01-21T10:33:50.475Z,99.99
2018-01-21T10:34:50.507Z,99.99
2018-01-21T10:35:50.605Z,99.99
2018-01-21T10:36:50.567Z,99.99
2018-01-21T10:37:50.599Z,99.99
2018-01-21T10:38:50.686Z,99.99
2018-01-21T10:39:50.662Z,99.99
2018-01-21T10:40:50.690Z,99.99
2018-01-21T10:41:50.718Z,99.99
2018-01-21T10:42:50.825Z,99.99
2018-01-21T10:43:50.779Z,99.99
2018-01-21T10:44:50.809Z,99.99
2018-01-21T10:45:50.840Z,99.86
2018-01-21T10:47:50.899Z,99.99
2018-01-21T10:48:50.931Z,99.06
2018-01-21T10:49:50.962Z,98.58
2018-01-21T10:50:51.000Z,99.34
2018-01-21T10:51:51.022Z,99.82
2018-01-21T10:52:51.061Z,99.82
2018-01-21T10:53:51.083Z,98.96
2018-01-21T10:54:51.113Z,97.07
2018-01-21T10:55:51.146Z,97.83
2018-01-21T10:56:51.178Z,97.26
2018-01-21T10:57:51.207Z,95.84
2018-01-21T10:58:51.239Z,95.45
2018-01-21T10:59:51.269Z,94.89
2018-01-21T11:00:51.298Z,95.65
2018-01-21T11:01:51.398Z,96.41
2018-01-21T11:02:51.358Z,96.50
2018-01-21T11:03:51.391Z,96.41
2018-01-21T11:04:51.423Z,96.31
2018-01-21T11:05:51.453Z,96.12
2018-01-21T11:06:51.485Z,95.45
2018-01-21T11:07:51.522Z,95.88
2018-01-21T11:08:51.550Z,95.84
2018-01-21T11:09:51.580Z,94.13
2018-01-21T11:10:51.610Z,93.27
2018-01-21T11:11:51.650Z,94.13
2018-01-21T11:12:51.672Z,95.17
2018-01-21T11:13:51.720Z,94.51
2018-01-21T11:14:51.734Z,94.89
2018-01-21T11:15:51.761Z,95.84
2018-01-21T11:16:51.793Z,95.74
2018-01-21T11:17:51.833Z,96.41
2018-01-21T11:18:51.863Z,96.41
2018-01-21T11:19:51.900Z,96.41
2018-01-21T11:20:51.916Z,95.84
2018-01-21T11:21:51.966Z,94.70
2018-01-21T11:22:51.981Z,95.45
2018-01-21T11:23:52.011Z,95.36
2018-01-21T11:24:52.040Z,94.51
2018-01-21T11:25:52.144Z,93.75
2018-01-21T11:26:52.101Z,94.04
2018-01-21T11:27:52.133Z,93.94
2018-01-21T11:28:52.164Z,93.75
2018-01-21T11:29:52.195Z,94.04
2018-01-21T11:30:52.233Z,94.32
2018-01-21T11:31:52.300Z,92.42
2018-01-21T11:32:52.287Z,92.61
2018-01-21T11:33:52.317Z,93.75
2018-01-21T11:34:52.352Z,93.84
2018-01-21T11:35:52.383Z,93.46
2018-01-21T11:36:52.412Z,93.75
2018-01-21T11:37:52.442Z,92.90
2018-01-21T11:38:52.472Z,93.65
2018-01-21T11:39:52.504Z,94.13
2018-01-21T11:40:52.535Z,95.26
2018-01-21T11:41:52.568Z,93.94
2018-01-21T11:42:52.636Z,94.08
2018-01-21T11:43:52.628Z,93.13
2018-01-21T11:44:52.663Z,93.04
2018-01-21T11:45:52.693Z,93.41
2018-01-21T11:46:52.724Z,93.70
2018-01-21T11:47:52.764Z,93.70
2018-01-21T11:48:52.784Z,93.04
2018-01-21T11:49:52.884Z,93.41
2018-01-21T11:50:52.851Z,93.13
2018-01-21T11:51:52.876Z,92.57
2018-01-21T11:52:52.933Z,91.80
2018-01-21T11:53:52.939Z,91.99
2018-01-21T11:54:52.976Z,91.42
2018-01-21T11:55:53.006Z,91.24
2018-01-21T11:56:53.042Z,91.33
2018-01-21T11:57:53.065Z,91.14
2018-01-21T11:58:53.105Z,91.33
2018-01-21T11:59:53.130Z,91.80
2018-01-21T12:00:53.161Z,91.33
2018-01-21T12:01:53.530Z,91.05
2018-01-21T12:02:53.285Z,92.28
2018-01-21T12:03:53.264Z,92.28
2018-01-21T12:04:53.285Z,91.05
2018-01-21T12:05:53.319Z,91.33
2018-01-21T12:06:53.349Z,90.86
2018-01-21T12:07:53.378Z,91.00
2018-01-21T12:08:53.442Z,89.86
2018-01-21T12:09:53.445Z,89.25
2018-01-21T12:10:53.477Z,89.62
2018-01-21T12:11:53.507Z,90.95
2018-01-21T12:12:53.538Z,92.28
2018-01-21T12:13:53.569Z,92.76
2018-01-21T12:14:53.602Z,92.28
2018-01-21T12:15:53.632Z,92.38
2018-01-21T12:16:53.666Z,93.32
2018-01-21T12:17:53.697Z,93.41
2018-01-21T12:18:53.727Z,93.51
2018-01-21T12:19:53.757Z,91.61
2018-01-21T12:20:53.790Z,91.90
2018-01-21T12:21:53.824Z,91.61
2018-01-21T12:22:53.862Z,91.42
2018-01-21T12:23:53.885Z,91.14
2018-01-21T12:24:53.927Z,91.33
2018-01-21T12:25:53.963Z,91.33
2018-01-21T12:26:53.983Z,91.80
2018-01-21T12:27:54.011Z,92.38
2018-01-21T12:28:54.043Z,91.42
2018-01-21T12:29:54.092Z,90.19
2018-01-21T12:30:54.109Z,90.29
2018-01-21T12:31:54.141Z,91.42
2018-01-21T12:32:54.194Z,92.85
2018-01-21T12:33:54.202Z,93.32
2018-01-21T12:34:54.235Z,92.38
2018-01-21T12:35:54.264Z,91.14
2018-01-21T12:36:54.356Z,90.29
2018-01-21T12:37:54.328Z,90.76
2018-01-21T12:38:54.359Z,90.33
2018-01-21T12:39:54.392Z,90.62
2018-01-21T12:40:54.477Z,89.39
2018-01-21T12:41:54.468Z,89.10
2018-01-21T12:42:54.490Z,90.05
2018-01-21T12:43:54.519Z,91.19
2018-01-21T12:44:54.551Z,89.67
2018-01-21T12:45:54.581Z,89.86
2018-01-21T12:46:54.613Z,89.67
2018-01-21T12:47:54.643Z,88.43
2018-01-21T12:48:54.681Z,87.11
2018-01-21T12:49:54.710Z,87.49
2018-01-21T12:50:54.753Z,87.96
2018-01-21T12:51:54.846Z,89.29
2018-01-21T12:52:54.803Z,89.76
2018-01-21T12:53:54.837Z,89.76
2018-01-21T12:54:54.866Z,89.58